Time,TemperatureF,DewpointF,PressureIn,WindDirection,WindDirectionDegrees,WindSpeedMPH,WindSpeedGustMPH,Humidity,HourlyPrecipIn,Conditions,Clouds,dailyrainin,SoftwareType,DateUTC
2013-01-23 00:00:00,8.0,0.0,30.16,WNW,292,0.0,9.0,71,0.00,,,0.00,Rainwise IP-100,2013-01-23 05:00:00,
2013-01-23 00:01:00,8.0,0.0,30.16,NNW,337,2.0,9.0,72,0.00,,,0.00,Rainwise IP-100,2013-01-23 05:01:00,
2013-01-23 00:02:00,8.0,0.0,30.15,WSW,247,6.0,9.0,71,0.00,,,0.00,Rainwise IP-100,2013-01-23 05:02:00,
2013-01-23 00:03:00,8.0,0.0,30.15,NW,315,3.0,10.0,71,0.00,,,0.00,Rainwise IP-100,2013-01-23 05:03:00,
2013-01-23 00:08:00,8.0,0.0,30.15,WSW,247,4.0,10.0,71,0.00,,,0.00,Rainwise IP-100,2013-01-23 05:08:00,
2013-01-23 00:13:00,8.0,0.0,30.15,SW,225,4.0,10.0,70,0.00,,,0.00,Rainwise IP-100,2013-01-23 05:13:00,
2013-01-23 00:18:00,8.0,0.0,30.15,NW,315,2.0,10.0,70,0.00,,,0.00,Rainwise IP-100,2013-01-23 05:18:00,
2013-01-23 00:23:00,8.0,0.0,30.15,WNW,292,1.0,7.0,70,0.00,,,0.00,Rainwise IP-100,2013-01-23 05:23:00,
2013-01-23 00:28:00,7.0,0.0,30.15,WNW,292,0.0,8.0,70,0.00,,,0.00,Rainwise IP-100,2013-01-23 05:28:00,
2013-01-23 00:33:00,7.0,0.0,30.15,NW,315,0.0,4.0,71,0.00,,,0.00,Rainwise IP-100,2013-01-23 05:33:00,
2013-01-23 02:34:00,5.0,0.0,30.18,WNW,292,0.0,6.0,59,0.00,,,0.00,Rainwise IP-100,2013-01-23 07:34:00,
2013-01-23 02:39:00,6.0,-6.0,30.18,NNW,337,6.0,8.0,58,0.00,,,0.00,Rainwise IP-100,2013-01-23 07:39:00,
2013-01-23 02:44:00,6.0,-6.0,30.18,NW,315,3.0,15.0,58,0.00,,,0.00,Rainwise IP-100,2013-01-23 07:44:00,
2013-01-23 02:49:00,6.0,0.0,30.18,NNW,337,6.0,10.0,59,0.00,,,0.00,Rainwise IP-100,2013-01-23 07:49:00,
2013-01-23 02:55:00,6.0,0.0,30.19,NW,315,3.0,10.0,59,0.00,,,0.00,Rainwise IP-100,2013-01-23 07:55:00,
2013-01-23 03:00:00,6.0,0.0,30.19,SW,225,0.0,12.0,59,0.00,,,0.00,Rainwise IP-100,2013-01-23 08:00:00,
2013-01-23 03:05:00,5.0,0.0,30.19,WNW,292,1.0,8.0,59,0.00,,,0.00,Rainwise IP-100,2013-01-23 08:05:00,
2013-01-23 03:10:00,5.0,0.0,30.19,NNE,22,4.0,8.0,60,0.00,,,0.00,Rainwise IP-100,2013-01-23 08:10:00,
2013-01-23 03:15:00,5.0,0.0,30.20,WSW,247,0.0,9.0,60,0.00,,,0.00,Rainwise IP-100,2013-01-23 08:15:00,
2013-01-23 03:20:00,5.0,0.0,30.20,NNW,337,7.0,7.0,61,0.00,,,0.00,Rainwise IP-100,2013-01-23 08:20:00,
2013-01-23 03:25:00,5.0,0.0,30.19,WNW,292,7.0,7.0,61,0.00,,,0.00,Rainwise IP-100,2013-01-23 08:25:00,
2013-01-23 03:30:00,5.0,0.0,30.19,WSW,247,3.0,9.0,61,0.00,,,0.00,Rainwise IP-100,2013-01-23 08:30:00,
2013-01-23 03:36:00,5.0,0.0,30.19,WNW,292,6.0,8.0,61,0.00,,,0.00,Rainwise IP-100,2013-01-23 08:36:00,
2013-01-23 03:41:00,5.0,0.0,30.19,WNW,292,0.0,9.0,61,0.00,,,0.00,Rainwise IP-100,2013-01-23 08:41:00,
2013-01-23 03:46:00,5.0,0.0,30.19,WSW,247,1.0,6.0,62,0.00,,,0.00,Rainwise IP-100,2013-01-23 08:46:00,
2013-01-23 03:51:00,5.0,0.0,30.19,NW,315,4.0,13.0,61,0.00,,,0.00,Rainwise IP-100,2013-01-23 08:51:00,
2013-01-23 03:56:00,5.0,0.0,30.19,NW,315,2.0,6.0,61,0.00,,,0.00,Rainwise IP-100,2013-01-23 08:56:00,
2013-01-23 04:02:00,5.0,0.0,30.19,WSW,247,1.0,3.0,61,0.00,,,0.00,Rainwise IP-100,2013-01-23 09:02:00,
2013-01-23 04:08:00,5.0,0.0,30.19,West,270,5.0,5.0,62,0.00,,,0.00,Rainwise IP-100,2013-01-23 09:08:00,
2013-01-23 04:13:00,5.0,0.0,30.19,West,270,0.0,5.0,63,0.00,,,0.00,Rainwise IP-100,2013-01-23 09:13:00,
2013-01-23 04:18:00,5.0,0.0,30.19,West,270,1.0,7.0,62,0.00,,,0.00,Rainwise IP-100,2013-01-23 09:18:00,
2013-01-23 04:23:00,5.0,0.0,30.20,North,360,0.0,7.0,62,0.00,,,0.00,Rainwise IP-100,2013-01-23 09:23:00,
2013-01-23 04:28:00,5.0,0.0,30.20,West,270,3.0,12.0,62,0.00,,,0.00,Rainwise IP-100,2013-01-23 09:28:00,
2013-01-23 04:33:00,5.0,0.0,30.20,ENE,67,0.0,9.0,62,0.00,,,0.00,Rainwise IP-100,2013-01-23 09:33:00,
2013-01-23 04:38:00,5.0,0.0,30.20,WSW,247,0.0,10.0,62,0.00,,,0.00,Rainwise IP-100,2013-01-23 09:38:00,
2013-01-23 04:44:00,5.0,0.0,30.20,SW,225,4.0,10.0,61,0.00,,,0.00,Rainwise IP-100,2013-01-23 09:44:00,
2013-01-23 04:49:00,5.0,0.0,30.20,NW,315,1.0,10.0,62,0.00,,,0.00,Rainwise IP-100,2013-01-23 09:49:00,
2013-01-23 04:54:00,5.0,0.0,30.20,North,360,1.0,10.0,61,0.00,,,0.00,Rainwise IP-100,2013-01-23 09:54:00,
2013-01-23 04:59:00,4.0,-6.0,30.20,SSW,202,3.0,10.0,61,0.00,,,0.00,Rainwise IP-100,2013-01-23 09:59:00,
2013-01-23 05:04:00,5.0,0.0,30.20,WNW,292,6.0,13.0,60,0.00,,,0.00,Rainwise IP-100,2013-01-23 10:04:00,
2013-01-23 05:09:00,4.0,-6.0,30.20,WNW,292,6.0,12.0,61,0.00,,,0.00,Rainwise IP-100,2013-01-23 10:09:00,
2013-01-23 05:14:00,4.0,-6.0,30.20,NW,315,2.0,9.0,61,0.00,,,0.00,Rainwise IP-100,2013-01-23 10:14:00,
2013-01-23 05:19:00,4.0,-6.0,30.20,SW,225,2.0,11.0,61,0.00,,,0.00,Rainwise IP-100,2013-01-23 10:19:00,
2013-01-23 05:24:00,4.0,-6.0,30.20,West,270,2.0,9.0,61,0.00,,,0.00,Rainwise IP-100,2013-01-23 10:24:00,
2013-01-23 05:30:00,4.0,-6.0,30.20,SSW,202,0.0,9.0,61,0.00,,,0.00,Rainwise IP-100,2013-01-23 10:30:00,
2013-01-23 05:35:00,4.0,-6.0,30.21,NW,315,7.0,11.0,61,0.00,,,0.00,Rainwise IP-100,2013-01-23 10:35:00,
2013-01-23 05:40:00,4.0,-6.0,30.21,WNW,292,4.0,8.0,61,0.00,,,0.00,Rainwise IP-100,2013-01-23 10:40:00,
2013-01-23 05:45:00,4.0,-6.0,30.21,SW,225,0.0,10.0,62,0.00,,,0.00,Rainwise IP-100,2013-01-23 10:45:00,
2013-01-23 05:50:00,4.0,-6.0,30.21,WSW,247,6.0,6.0,64,0.00,,,0.00,Rainwise IP-100,2013-01-23 10:50:00,
2013-01-23 05:55:00,4.0,-6.0,30.21,NE,45,0.0,9.0,63,0.00,,,0.00,Rainwise IP-100,2013-01-23 10:55:00,
2013-01-23 06:00:00,4.0,-6.0,30.21,West,270,1.0,10.0,62,0.00,,,0.00,Rainwise IP-100,2013-01-23 11:00:00,
2013-01-23 06:06:00,4.0,-6.0,30.21,SSW,202,1.0,8.0,63,0.00,,,0.00,Rainwise IP-100,2013-01-23 11:06:00,
2013-01-23 06:11:00,4.0,-6.0,30.21,SW,225,6.0,15.0,61,0.00,,,0.00,Rainwise IP-100,2013-01-23 11:11:00,
2013-01-23 06:16:00,4.0,-6.0,30.22,West,270,7.0,14.0,61,0.00,,,0.00,Rainwise IP-100,2013-01-23 11:16:00,
2013-01-23 06:21:00,4.0,-6.0,30.22,WNW,292,5.0,13.0,61,0.00,,,0.00,Rainwise IP-100,2013-01-23 11:21:00,
2013-01-23 06:26:00,4.0,-6.0,30.22,WNW,292,4.0,14.0,61,0.00,,,0.00,Rainwise IP-100,2013-01-23 11:26:00,
2013-01-23 06:31:00,4.0,-6.0,30.22,WNW,292,6.0,7.0,62,0.00,,,0.00,Rainwise IP-100,2013-01-23 11:31:00,
2013-01-23 06:36:00,4.0,-6.0,30.22,NNW,337,9.0,10.0,63,0.00,,,0.00,Rainwise IP-100,2013-01-23 11:36:00,
2013-01-23 06:41:00,4.0,-6.0,30.22,West,270,9.0,13.0,62,0.00,,,0.00,Rainwise IP-100,2013-01-23 11:41:00,
2013-01-23 06:46:00,4.0,-6.0,30.21,NNW,337,2.0,13.0,63,0.00,,,0.00,Rainwise IP-100,2013-01-23 11:46:00,
2013-01-23 06:52:00,4.0,-6.0,30.21,WNW,292,1.0,10.0,64,0.00,,,0.00,Rainwise IP-100,2013-01-23 11:52:00,
2013-01-23 06:57:00,3.0,-6.0,30.22,NNW,337,4.0,10.0,65,0.00,,,0.00,Rainwise IP-100,2013-01-23 11:57:00,
2013-01-23 07:02:00,3.0,-6.0,30.22,NW,315,3.0,14.0,64,0.00,,,0.00,Rainwise IP-100,2013-01-23 12:02:00,
2013-01-23 07:07:00,3.0,-6.0,30.22,WSW,247,2.0,13.0,65,0.00,,,0.00,Rainwise IP-100,2013-01-23 12:07:00,
2013-01-23 07:12:00,3.0,-6.0,30.22,WSW,247,0.0,13.0,64,0.00,,,0.00,Rainwise IP-100,2013-01-23 12:12:00,
2013-01-23 07:17:00,3.0,-6.0,30.23,SW,225,6.0,9.0,65,0.00,,,0.00,Rainwise IP-100,2013-01-23 12:17:00,
2013-01-23 07:22:00,3.0,-6.0,30.23,WNW,292,6.0,9.0,66,0.00,,,0.00,Rainwise IP-100,2013-01-23 12:22:00,
2013-01-23 07:28:00,3.0,-6.0,30.23,NNW,337,7.0,11.0,66,0.00,,,0.00,Rainwise IP-100,2013-01-23 12:28:00,
2013-01-23 07:33:00,3.0,-6.0,30.23,WSW,247,2.0,7.0,68,0.00,,,0.00,Rainwise IP-100,2013-01-23 12:33:00,
2013-01-23 07:38:00,3.0,-6.0,30.23,WSW,247,4.0,10.0,67,0.00,,,0.00,Rainwise IP-100,2013-01-23 12:38:00,
2013-01-23 07:43:00,3.0,-6.0,30.22,SSW,202,0.0,7.0,68,0.00,,,0.00,Rainwise IP-100,2013-01-23 12:43:00,
2013-01-23 07:48:00,3.0,-6.0,30.22,SSW,202,3.0,8.0,68,0.00,,,0.00,Rainwise IP-100,2013-01-23 12:48:00,
2013-01-23 07:53:00,3.0,-6.0,30.22,WNW,292,0.0,6.0,69,0.00,,,0.00,Rainwise IP-100,2013-01-23 12:53:00,
2013-01-23 07:58:00,3.0,-6.0,30.22,NW,315,6.0,12.0,68,0.00,,,0.00,Rainwise IP-100,2013-01-23 12:58:00,
2013-01-23 08:03:00,3.0,-6.0,30.22,WSW,247,3.0,10.0,68,0.00,,,0.00,Rainwise IP-100,2013-01-23 13:03:00,
2013-01-23 08:08:00,4.0,-6.0,30.22,North,360,2.0,9.0,68,0.00,,,0.00,Rainwise IP-100,2013-01-23 13:08:00,
2013-01-23 08:13:00,4.0,-6.0,30.23,West,270,5.0,8.0,69,0.00,,,0.00,Rainwise IP-100,2013-01-23 13:13:00,
2013-01-23 08:19:00,4.0,-6.0,30.23,WNW,292,7.0,7.0,69,0.00,,,0.00,Rainwise IP-100,2013-01-23 13:19:00,
2013-01-23 08:24:00,4.0,-6.0,30.23,SW,225,2.0,9.0,68,0.00,,,0.00,Rainwise IP-100,2013-01-23 13:24:00,
2013-01-23 08:29:00,4.0,-6.0,30.23,WNW,292,6.0,10.0,68,0.00,,,0.00,Rainwise IP-100,2013-01-23 13:29:00,
2013-01-23 08:34:00,5.0,0.0,30.23,West,270,5.0,10.0,68,0.00,,,0.00,Rainwise IP-100,2013-01-23 13:34:00,
2013-01-23 08:39:00,5.0,0.0,30.23,NNW,337,7.0,9.0,67,0.00,,,0.00,Rainwise IP-100,2013-01-23 13:39:00,
2013-01-23 08:44:00,5.0,0.0,30.23,WSW,247,1.0,10.0,66,0.00,,,0.00,Rainwise IP-100,2013-01-23 13:44:00,
2013-01-23 08:49:00,6.0,0.0,30.23,West,270,6.0,9.0,66,0.00,,,0.00,Rainwise IP-100,2013-01-23 13:49:00,
2013-01-23 08:55:00,6.0,0.0,30.23,West,270,5.0,9.0,65,0.00,,,0.00,Rainwise IP-100,2013-01-23 13:55:00,
2013-01-23 09:00:00,6.0,0.0,30.23,NW,315,3.0,10.0,65,0.00,,,0.00,Rainwise IP-100,2013-01-23 14:00:00,
2013-01-23 09:05:00,7.0,0.0,30.22,SW,225,1.0,9.0,64,0.00,,,0.00,Rainwise IP-100,2013-01-23 14:05:00,
2013-01-23 09:10:00,7.0,0.0,30.22,SW,225,6.0,16.0,63,0.00,,,0.00,Rainwise IP-100,2013-01-23 14:10:00,
2013-01-23 09:15:00,7.0,0.0,30.22,SW,225,5.0,10.0,62,0.00,,,0.00,Rainwise IP-100,2013-01-23 14:15:00,
2013-01-23 09:20:00,8.0,0.0,30.22,West,270,1.0,12.0,63,0.00,,,0.00,Rainwise IP-100,2013-01-23 14:20:00,
2013-01-23 09:25:00,8.0,0.0,30.22,WNW,292,6.0,12.0,62,0.00,,,0.00,Rainwise IP-100,2013-01-23 14:25:00,
2013-01-23 09:30:00,8.0,0.0,30.22,NNW,337,9.0,10.0,61,0.00,,,0.00,Rainwise IP-100,2013-01-23 14:30:00,
2013-01-23 09:35:00,8.0,0.0,30.22,SW,225,5.0,16.0,60,0.00,,,0.00,Rainwise IP-100,2013-01-23 14:35:00,
2013-01-23 09:41:00,8.0,0.0,30.22,West,270,1.0,14.0,60,0.00,,,0.00,Rainwise IP-100,2013-01-23 14:41:00,
2013-01-23 09:46:00,8.0,0.0,30.22,WNW,292,4.0,15.0,60,0.00,,,0.00,Rainwise IP-100,2013-01-23 14:46:00,
2013-01-23 09:51:00,8.0,-6.0,30.22,NW,315,9.0,16.0,57,0.00,,,0.00,Rainwise IP-100,2013-01-23 14:51:00,
2013-01-23 09:56:00,8.0,-6.0,30.22,NW,315,6.0,15.0,58,0.00,,,0.00,Rainwise IP-100,2013-01-23 14:56:00,
2013-01-23 10:01:00,8.0,-6.0,30.22,WNW,292,0.0,14.0,57,0.00,,,0.00,Rainwise IP-100,2013-01-23 15:01:00,
2013-01-23 10:06:00,8.0,-6.0,30.22,NW,315,10.0,17.0,55,0.00,,,0.00,Rainwise IP-100,2013-01-23 15:06:00,
2013-01-23 10:11:00,9.0,0.0,30.22,WNW,292,0.0,17.0,57,0.00,,,0.00,Rainwise IP-100,2013-01-23 15:11:00,
2013-01-23 10:16:00,9.0,0.0,30.21,WSW,247,9.0,19.0,55,0.00,,,0.00,Rainwise IP-100,2013-01-23 15:16:00,
2013-01-23 10:22:00,9.0,0.0,30.21,WNW,292,2.0,17.0,55,0.00,,,0.00,Rainwise IP-100,2013-01-23 15:22:00,
2013-01-23 10:27:00,9.0,0.0,30.21,WSW,247,4.0,12.0,54,0.00,,,0.00,Rainwise IP-100,2013-01-23 15:27:00,
2013-01-23 10:32:00,10.0,0.0,30.21,North,360,4.0,11.0,54,0.00,,,0.00,Rainwise IP-100,2013-01-23 15:32:00,
2013-01-23 10:37:00,10.0,0.0,30.20,NNW,337,2.0,10.0,54,0.00,,,0.00,Rainwise IP-100,2013-01-23 15:37:00,
2013-01-23 10:42:00,10.0,0.0,30.20,South,180,1.0,15.0,53,0.00,,,0.00,Rainwise IP-100,2013-01-23 15:42:00,
2013-01-23 10:47:00,10.0,0.0,30.20,South,180,2.0,24.0,52,0.00,,,0.00,Rainwise IP-100,2013-01-23 15:47:00,
2013-01-23 10:52:00,10.0,0.0,30.20,NNW,337,6.0,18.0,53,0.00,,,0.00,Rainwise IP-100,2013-01-23 15:52:00,
2013-01-23 10:58:00,10.0,0.0,30.20,WSW,247,12.0,16.0,53,0.00,,,0.00,Rainwise IP-100,2013-01-23 15:58:00,
2013-01-23 11:03:00,10.0,0.0,30.20,WNW,292,8.0,21.0,52,0.00,,,0.00,Rainwise IP-100,2013-01-23 16:03:00,
2013-01-23 11:08:00,10.0,0.0,30.20,West,270,7.0,19.0,52,0.00,,,0.00,Rainwise IP-100,2013-01-23 16:08:00,
2013-01-23 11:13:00,9.0,0.0,30.19,WNW,292,7.0,25.0,51,0.00,,,0.00,Rainwise IP-100,2013-01-23 16:13:00,
2013-01-23 11:18:00,10.0,0.0,30.19,NW,315,4.0,15.0,54,0.00,,,0.00,Rainwise IP-100,2013-01-23 16:18:00,
2013-01-23 11:23:00,10.0,0.0,30.19,WNW,292,7.0,19.0,52,0.00,,,0.00,Rainwise IP-100,2013-01-23 16:23:00,
2013-01-23 11:28:00,9.0,0.0,30.19,WNW,292,3.0,15.0,50,0.00,,,0.00,Rainwise IP-100,2013-01-23 16:28:00,
2013-01-23 11:34:00,10.0,0.0,30.18,SW,225,4.0,16.0,51,0.00,,,0.00,Rainwise IP-100,2013-01-23 16:34:00,
2013-01-23 11:39:00,10.0,0.0,30.18,NW,315,9.0,19.0,50,0.00,,,0.00,Rainwise IP-100,2013-01-23 16:39:00,
2013-01-23 11:44:00,9.0,-6.0,30.18,SSW,202,7.0,22.0,49,0.00,,,0.00,Rainwise IP-100,2013-01-23 16:44:00,
2013-01-23 11:49:00,10.0,0.0,30.18,West,270,5.0,16.0,50,0.00,,,0.00,Rainwise IP-100,2013-01-23 16:49:00,
2013-01-23 11:54:00,10.0,0.0,30.18,NW,315,7.0,20.0,50,0.00,,,0.00,Rainwise IP-100,2013-01-23 16:54:00,
2013-01-23 11:59:00,10.0,-6.0,30.18,WNW,292,4.0,16.0,49,0.00,,,0.00,Rainwise IP-100,2013-01-23 16:59:00,
2013-01-23 12:04:00,10.0,-6.0,30.17,NW,315,13.0,15.0,48,0.00,,,0.00,Rainwise IP-100,2013-01-23 17:04:00,
2013-01-23 12:09:00,10.0,-6.0,30.17,West,270,5.0,17.0,47,0.00,,,0.00,Rainwise IP-100,2013-01-23 17:09:00,
2013-01-23 12:15:00,10.0,-6.0,30.17,NW,315,6.0,17.0,46,0.00,,,0.00,Rainwise IP-100,2013-01-23 17:15:00,
2013-01-23 12:20:00,11.0,-6.0,30.17,NNW,337,12.0,22.0,44,0.00,,,0.00,Rainwise IP-100,2013-01-23 17:20:00,
2013-01-23 12:25:00,11.0,-6.0,30.15,West,270,9.0,17.0,45,0.00,,,0.00,Rainwise IP-100,2013-01-23 17:25:00,
2013-01-23 12:30:00,11.0,-6.0,30.15,NW,315,13.0,17.0,46,0.00,,,0.00,Rainwise IP-100,2013-01-23 17:30:00,
2013-01-23 12:35:00,11.0,-6.0,30.15,WSW,247,2.0,17.0,47,0.00,,,0.00,Rainwise IP-100,2013-01-23 17:35:00,
2013-01-23 12:40:00,11.0,-6.0,30.15,West,270,1.0,16.0,47,0.00,,,0.00,Rainwise IP-100,2013-01-23 17:40:00,
2013-01-23 12:45:00,11.0,-6.0,30.15,WNW,292,6.0,21.0,44,0.00,,,0.00,Rainwise IP-100,2013-01-23 17:45:00,
2013-01-23 12:50:00,11.0,-6.0,30.15,West,270,6.0,14.0,44,0.00,,,0.00,Rainwise IP-100,2013-01-23 17:50:00,
2013-01-23 12:56:00,11.0,-6.0,30.14,WSW,247,12.0,15.0,43,0.00,,,0.00,Rainwise IP-100,2013-01-23 17:56:00,
2013-01-23 13:01:00,11.0,-6.0,30.14,NW,315,9.0,16.0,44,0.00,,,0.00,Rainwise IP-100,2013-01-23 18:01:00,
2013-01-23 13:06:00,11.0,-6.0,30.14,NE,45,4.0,16.0,44,0.00,,,0.00,Rainwise IP-100,2013-01-23 18:06:00,
2013-01-23 13:11:00,11.0,-6.0,30.14,NW,315,15.0,18.0,42,0.00,,,0.00,Rainwise IP-100,2013-01-23 18:11:00,
2013-01-23 13:16:00,11.0,-6.0,30.14,NNW,337,2.0,15.0,43,0.00,,,0.00,Rainwise IP-100,2013-01-23 18:16:00,
2013-01-23 13:21:00,11.0,-6.0,30.14,NNW,337,8.0,23.0,43,0.00,,,0.00,Rainwise IP-100,2013-01-23 18:21:00,
2013-01-23 13:26:00,11.0,-6.0,30.14,West,270,3.0,17.0,42,0.00,,,0.00,Rainwise IP-100,2013-01-23 18:26:00,
2013-01-23 13:31:00,11.0,-6.0,30.14,WSW,247,7.0,23.0,43,0.00,,,0.00,Rainwise IP-100,2013-01-23 18:31:00,
2013-01-23 13:37:00,11.0,-6.0,30.14,WNW,292,2.0,16.0,44,0.00,,,0.00,Rainwise IP-100,2013-01-23 18:37:00,
2013-01-23 13:42:00,10.0,-6.0,30.14,NNW,337,8.0,17.0,45,0.00,,,0.00,Rainwise IP-100,2013-01-23 18:42:00,
2013-01-23 13:47:00,10.0,-6.0,30.14,SSW,202,6.0,15.0,45,0.00,,,0.00,Rainwise IP-100,2013-01-23 18:47:00,
2013-01-23 13:52:00,10.0,-6.0,30.14,WNW,292,10.0,16.0,44,0.00,,,0.00,Rainwise IP-100,2013-01-23 18:52:00,
2013-01-23 13:57:00,10.0,-6.0,30.15,NW,315,14.0,15.0,44,0.00,,,0.00,Rainwise IP-100,2013-01-23 18:57:00,
2013-01-23 14:02:00,10.0,-6.0,30.15,West,270,5.0,20.0,43,0.00,,,0.00,Rainwise IP-100,2013-01-23 19:02:00,
2013-01-23 14:07:00,10.0,-6.0,30.15,WSW,247,12.0,19.0,44,0.00,,,0.00,Rainwise IP-100,2013-01-23 19:07:00,
2013-01-23 14:12:00,10.0,-6.0,30.15,ESE,112,1.0,13.0,44,0.00,,,0.00,Rainwise IP-100,2013-01-23 19:12:00,
2013-01-23 14:18:00,10.0,-6.0,30.15,NNW,337,7.0,17.0,45,0.00,,,0.00,Rainwise IP-100,2013-01-23 19:18:00,
2013-01-23 14:23:00,10.0,-6.0,30.16,NW,315,5.0,15.0,45,0.00,,,0.00,Rainwise IP-100,2013-01-23 19:23:00,
2013-01-23 14:28:00,10.0,-6.0,30.16,NNE,22,3.0,19.0,45,0.00,,,0.00,Rainwise IP-100,2013-01-23 19:28:00,
2013-01-23 14:33:00,11.0,-6.0,30.14,WNW,292,6.0,15.0,45,0.00,,,0.00,Rainwise IP-100,2013-01-23 19:33:00,
2013-01-23 14:38:00,11.0,-6.0,30.14,West,270,3.0,10.0,46,0.00,,,0.00,Rainwise IP-100,2013-01-23 19:38:00,
2013-01-23 14:43:00,11.0,-6.0,30.16,WNW,292,7.0,15.0,44,0.00,,,0.00,Rainwise IP-100,2013-01-23 19:43:00,
2013-01-23 14:48:00,11.0,-6.0,30.16,WSW,247,5.0,13.0,45,0.00,,,0.00,Rainwise IP-100,2013-01-23 19:48:00,
2013-01-23 14:54:00,11.0,-6.0,30.16,North,360,10.0,19.0,42,0.00,,,0.00,Rainwise IP-100,2013-01-23 19:54:00,
2013-01-23 14:59:00,11.0,-6.0,30.16,ENE,67,3.0,15.0,42,0.00,,,0.00,Rainwise IP-100,2013-01-23 19:59:00,
2013-01-23 15:04:00,12.0,-6.0,30.15,North,360,10.0,15.0,42,0.00,,,0.00,Rainwise IP-100,2013-01-23 20:04:00,
2013-01-23 15:09:00,11.0,-6.0,30.15,NW,315,8.0,17.0,42,0.00,,,0.00,Rainwise IP-100,2013-01-23 20:09:00,
2013-01-23 15:14:00,11.0,-6.0,30.15,WSW,247,3.0,20.0,42,0.00,,,0.00,Rainwise IP-100,2013-01-23 20:14:00,
2013-01-23 15:19:00,11.0,-6.0,30.15,NW,315,9.0,18.0,42,0.00,,,0.00,Rainwise IP-100,2013-01-23 20:19:00,
2013-01-23 15:24:00,11.0,-6.0,30.15,South,180,1.0,16.0,43,0.00,,,0.00,Rainwise IP-100,2013-01-23 20:24:00,
2013-01-23 15:29:00,10.0,-6.0,30.15,NNW,337,9.0,17.0,42,0.00,,,0.00,Rainwise IP-100,2013-01-23 20:29:00,
2013-01-23 15:34:00,10.0,-6.0,30.16,NNE,22,0.0,18.0,44,0.00,,,0.00,Rainwise IP-100,2013-01-23 20:34:00,
2013-01-23 15:40:00,10.0,-6.0,30.16,WNW,292,6.0,13.0,44,0.00,,,0.00,Rainwise IP-100,2013-01-23 20:40:00,
2013-01-23 15:45:00,10.0,-6.0,30.15,West,270,2.0,18.0,43,0.00,,,0.00,Rainwise IP-100,2013-01-23 20:45:00,
2013-01-23 15:50:00,9.0,-6.0,30.15,WNW,292,9.0,17.0,42,0.00,,,0.00,Rainwise IP-100,2013-01-23 20:50:00,
2013-01-23 15:55:00,9.0,-6.0,30.16,SW,225,4.0,16.0,43,0.00,,,0.00,Rainwise IP-100,2013-01-23 20:55:00,
2013-01-23 16:00:00,9.0,-6.0,30.16,NNE,22,1.0,20.0,43,0.00,,,0.00,Rainwise IP-100,2013-01-23 21:00:00,
2013-01-23 16:05:00,9.0,-6.0,30.16,WNW,292,6.0,19.0,44,0.00,,,0.00,Rainwise IP-100,2013-01-23 21:05:00,
2013-01-23 16:10:00,9.0,-6.0,30.16,WNW,292,12.0,15.0,42,0.00,,,0.00,Rainwise IP-100,2013-01-23 21:10:00,
2013-01-23 16:16:00,9.0,-6.0,30.15,East,90,0.0,17.0,43,0.00,,,0.00,Rainwise IP-100,2013-01-23 21:16:00,
2013-01-23 16:21:00,9.0,-6.0,30.15,West,270,9.0,17.0,43,0.00,,,0.00,Rainwise IP-100,2013-01-23 21:21:00,
2013-01-23 16:26:00,9.0,-6.0,30.16,NNW,337,6.0,13.0,45,0.00,,,0.00,Rainwise IP-100,2013-01-23 21:26:00,
2013-01-23 16:31:00,9.0,-6.0,30.16,NW,315,2.0,15.0,45,0.00,,,0.00,Rainwise IP-100,2013-01-23 21:31:00,
2013-01-23 16:36:00,8.0,-6.0,30.16,SW,225,5.0,13.0,44,0.00,,,0.00,Rainwise IP-100,2013-01-23 21:36:00,
2013-01-23 16:41:00,8.0,-6.0,30.16,WNW,292,7.0,18.0,44,0.00,,,0.00,Rainwise IP-100,2013-01-23 21:41:00,
2013-01-23 16:46:00,8.0,-6.0,30.16,West,270,8.0,13.0,44,0.00,,,0.00,Rainwise IP-100,2013-01-23 21:46:00,
2013-01-23 16:52:00,8.0,-6.0,30.16,WNW,292,7.0,18.0,45,0.00,,,0.00,Rainwise IP-100,2013-01-23 21:52:00,
2013-01-23 16:57:00,8.0,-6.0,30.16,SW,225,9.0,16.0,45,0.00,,,0.00,Rainwise IP-100,2013-01-23 21:57:00,
2013-01-23 17:02:00,8.0,-6.0,30.16,NW,315,15.0,15.0,45,0.00,,,0.00,Rainwise IP-100,2013-01-23 22:02:00,
2013-01-23 17:07:00,8.0,-6.0,30.17,WNW,292,13.0,22.0,45,0.00,,,0.00,Rainwise IP-100,2013-01-23 22:07:00,
2013-01-23 17:12:00,8.0,-6.0,30.17,North,360,0.0,18.0,46,0.00,,,0.00,Rainwise IP-100,2013-01-23 22:12:00,
2013-01-23 17:17:00,8.0,-6.0,30.17,SSW,202,6.0,16.0,46,0.00,,,0.00,Rainwise IP-100,2013-01-23 22:17:00,
2013-01-23 17:22:00,8.0,-6.0,30.17,North,360,10.0,14.0,47,0.00,,,0.00,Rainwise IP-100,2013-01-23 22:22:00,
2013-01-23 17:27:00,7.0,-6.0,30.17,North,360,3.0,16.0,48,0.00,,,0.00,Rainwise IP-100,2013-01-23 22:27:00,
2013-01-23 17:33:00,7.0,-6.0,30.17,NW,315,1.0,8.0,49,0.00,,,0.00,Rainwise IP-100,2013-01-23 22:33:00,
2013-01-23 17:38:00,7.0,-6.0,30.18,West,270,4.0,9.0,49,0.00,,,0.00,Rainwise IP-100,2013-01-23 22:38:00,
2013-01-23 17:43:00,7.0,-6.0,30.18,North,360,4.0,13.0,49,0.00,,,0.00,Rainwise IP-100,2013-01-23 22:43:00,
2013-01-23 17:48:00,7.0,-6.0,30.18,WNW,292,4.0,11.0,49,0.00,,,0.00,Rainwise IP-100,2013-01-23 22:48:00,
2013-01-23 17:53:00,7.0,-6.0,30.18,SW,225,4.0,12.0,48,0.00,,,0.00,Rainwise IP-100,2013-01-23 22:53:00,
2013-01-23 17:58:00,7.0,-6.0,30.18,NNW,337,6.0,9.0,48,0.00,,,0.00,Rainwise IP-100,2013-01-23 22:58:00,
2013-01-23 18:03:00,7.0,-6.0,30.19,WSW,247,3.0,13.0,48,0.00,,,0.00,Rainwise IP-100,2013-01-23 23:03:00,
2013-01-23 18:09:00,7.0,-6.0,30.19,NNW,337,3.0,9.0,48,0.00,,,0.00,Rainwise IP-100,2013-01-23 23:09:00,
2013-01-23 18:14:00,7.0,-6.0,30.19,WNW,292,9.0,9.0,49,0.00,,,0.00,Rainwise IP-100,2013-01-23 23:14:00,
2013-01-23 18:19:00,7.0,-6.0,30.19,NW,315,7.0,12.0,48,0.00,,,0.00,Rainwise IP-100,2013-01-23 23:19:00,
2013-01-23 18:24:00,7.0,-6.0,30.19,NW,315,3.0,13.0,48,0.00,,,0.00,Rainwise IP-100,2013-01-23 23:24:00,
2013-01-23 18:29:00,7.0,-6.0,30.19,West,270,6.0,13.0,48,0.00,,,0.00,Rainwise IP-100,2013-01-23 23:29:00,
2013-01-23 18:34:00,7.0,-6.0,30.19,NW,315,7.0,14.0,48,0.00,,,0.00,Rainwise IP-100,2013-01-23 23:34:00,
2013-01-23 18:39:00,7.0,-6.0,30.19,West,270,10.0,15.0,49,0.00,,,0.00,Rainwise IP-100,2013-01-23 23:39:00,
2013-01-23 18:44:00,7.0,-6.0,30.19,West,270,3.0,13.0,49,0.00,,,0.00,Rainwise IP-100,2013-01-23 23:44:00,
2013-01-23 18:49:00,6.0,-6.0,30.19,NW,315,6.0,14.0,49,0.00,,,0.00,Rainwise IP-100,2013-01-23 23:49:00,
2013-01-23 18:55:00,6.0,-6.0,30.20,North,360,2.0,12.0,49,0.00,,,0.00,Rainwise IP-100,2013-01-23 23:55:00,
2013-01-23 19:00:00,6.0,-6.0,30.20,NNW,337,6.0,15.0,48,0.00,,,0.00,Rainwise IP-100,2013-01-24 00:00:00,
2013-01-23 19:05:00,6.0,-6.0,30.21,WNW,292,9.0,10.0,48,0.00,,,0.00,Rainwise IP-100,2013-01-24 00:05:00,
2013-01-23 19:10:00,6.0,-6.0,30.21,NNW,337,5.0,17.0,49,0.00,,,0.00,Rainwise IP-100,2013-01-24 00:10:00,
2013-01-23 19:15:00,6.0,-6.0,30.21,NNW,337,10.0,13.0,47,0.00,,,0.00,Rainwise IP-100,2013-01-24 00:15:00,
2013-01-23 19:20:00,6.0,-6.0,30.21,NW,315,6.0,17.0,48,0.00,,,0.00,Rainwise IP-100,2013-01-24 00:20:00,
2013-01-23 19:25:00,6.0,-6.0,30.21,North,360,9.0,12.0,48,0.00,,,0.00,Rainwise IP-100,2013-01-24 00:25:00,
2013-01-23 19:31:00,6.0,-6.0,30.21,NNW,337,4.0,16.0,48,0.00,,,0.00,Rainwise IP-100,2013-01-24 00:31:00,
2013-01-23 19:36:00,5.0,-6.0,30.21,NW,315,5.0,11.0,48,0.00,,,0.00,Rainwise IP-100,2013-01-24 00:36:00,
2013-01-23 19:41:00,5.0,-6.0,30.21,WNW,292,4.0,12.0,49,0.00,,,0.00,Rainwise IP-100,2013-01-24 00:41:00,
2013-01-23 19:46:00,5.0,-6.0,30.22,SW,225,6.0,12.0,48,0.00,,,0.00,Rainwise IP-100,2013-01-24 00:46:00,
2013-01-23 19:51:00,5.0,-6.0,30.22,WSW,247,3.0,15.0,49,0.00,,,0.00,Rainwise IP-100,2013-01-24 00:51:00,
2013-01-23 19:56:00,5.0,-6.0,30.22,WNW,292,7.0,8.0,49,0.00,,,0.00,Rainwise IP-100,2013-01-24 00:56:00,
2013-01-23 20:01:00,5.0,-6.0,30.22,NW,315,11.0,11.0,49,0.00,,,0.00,Rainwise IP-100,2013-01-24 01:01:00,
2013-01-23 20:07:00,5.0,-6.0,30.22,NW,315,7.0,12.0,49,0.00,,,0.00,Rainwise IP-100,2013-01-24 01:07:00,
2013-01-23 20:12:00,5.0,-6.0,30.22,West,270,8.0,15.0,49,0.00,,,0.00,Rainwise IP-100,2013-01-24 01:12:00,
2013-01-23 20:17:00,5.0,-6.0,30.22,WNW,292,0.0,16.0,50,0.00,,,0.00,Rainwise IP-100,2013-01-24 01:17:00,
2013-01-23 20:22:00,5.0,-6.0,30.22,NW,315,7.0,13.0,49,0.00,,,0.00,Rainwise IP-100,2013-01-24 01:22:00,
2013-01-23 20:27:00,4.0,-6.0,30.22,WNW,292,1.0,9.0,51,0.00,,,0.00,Rainwise IP-100,2013-01-24 01:27:00,
2013-01-23 20:32:00,4.0,-6.0,30.22,SW,225,0.0,10.0,51,0.00,,,0.00,Rainwise IP-100,2013-01-24 01:32:00,
2013-01-23 20:37:00,4.0,-6.0,30.22,ENE,67,2.0,10.0,51,0.00,,,0.00,Rainwise IP-100,2013-01-24 01:37:00,
2013-01-23 20:42:00,4.0,-6.0,30.22,WNW,292,5.0,7.0,51,0.00,,,0.00,Rainwise IP-100,2013-01-24 01:42:00,
2013-01-23 20:47:00,4.0,-6.0,30.22,SSW,202,3.0,11.0,50,0.00,,,0.00,Rainwise IP-100,2013-01-24 01:47:00,
2013-01-23 20:53:00,4.0,-6.0,30.22,WNW,292,0.0,9.0,51,0.00,,,0.00,Rainwise IP-100,2013-01-24 01:53:00,
2013-01-23 20:58:00,4.0,-6.0,30.23,WSW,247,4.0,8.0,52,0.00,,,0.00,Rainwise IP-100,2013-01-24 01:58:00,
2013-01-23 21:03:00,4.0,-6.0,30.23,WSW,247,6.0,9.0,51,0.00,,,0.00,Rainwise IP-100,2013-01-24 02:03:00,
2013-01-23 21:08:00,4.0,-6.0,30.23,WNW,292,0.0,7.0,53,0.00,,,0.00,Rainwise IP-100,2013-01-24 02:08:00,
2013-01-23 21:13:00,4.0,-6.0,30.23,NW,315,5.0,7.0,52,0.00,,,0.00,Rainwise IP-100,2013-01-24 02:13:00,
2013-01-23 21:18:00,4.0,-6.0,30.23,West,270,1.0,8.0,52,0.00,,,0.00,Rainwise IP-100,2013-01-24 02:18:00,
2013-01-23 21:23:00,4.0,-6.0,30.23,WNW,292,0.0,7.0,52,0.00,,,0.00,Rainwise IP-100,2013-01-24 02:23:00,
2013-01-23 21:29:00,3.0,-6.0,30.23,West,270,0.0,6.0,54,0.00,,,0.00,Rainwise IP-100,2013-01-24 02:29:00,
2013-01-23 21:34:00,3.0,-6.0,30.23,NW,315,0.0,9.0,53,0.00,,,0.00,Rainwise IP-100,2013-01-24 02:34:00,
2013-01-23 21:39:00,3.0,-6.0,30.23,WSW,247,2.0,6.0,53,0.00,,,0.00,Rainwise IP-100,2013-01-24 02:39:00,
2013-01-23 21:44:00,3.0,-6.0,30.23,WSW,247,3.0,7.0,52,0.00,,,0.00,Rainwise IP-100,2013-01-24 02:44:00,
2013-01-23 21:49:00,3.0,-6.0,30.23,WNW,292,0.0,7.0,53,0.00,,,0.00,Rainwise IP-100,2013-01-24 02:49:00,
2013-01-23 21:54:00,3.0,-6.0,30.23,West,270,0.0,10.0,52,0.00,,,0.00,Rainwise IP-100,2013-01-24 02:54:00,
2013-01-23 21:59:00,3.0,-6.0,30.23,NW,315,4.0,6.0,53,0.00,,,0.00,Rainwise IP-100,2013-01-24 02:59:00,
2013-01-23 22:05:00,3.0,-6.0,30.23,WNW,292,0.0,8.0,53,0.00,,,0.00,Rainwise IP-100,2013-01-24 03:05:00,
2013-01-23 22:10:00,3.0,-6.0,30.23,NW,315,0.0,3.0,54,0.00,,,0.00,Rainwise IP-100,2013-01-24 03:10:00,
2013-01-23 22:15:00,2.0,-6.0,30.24,NNW,337,0.0,5.0,55,0.00,,,0.00,Rainwise IP-100,2013-01-24 03:15:00,
2013-01-23 22:20:00,2.0,-6.0,30.24,WSW,247,2.0,9.0,54,0.00,,,0.00,Rainwise IP-100,2013-01-24 03:20:00,
2013-01-23 22:25:00,2.0,-6.0,30.23,WNW,292,0.0,6.0,55,0.00,,,0.00,Rainwise IP-100,2013-01-24 03:25:00,
2013-01-23 22:30:00,2.0,-6.0,30.23,NNW,337,0.0,5.0,55,0.00,,,0.00,Rainwise IP-100,2013-01-24 03:30:00,
2013-01-23 22:35:00,2.0,-6.0,30.24,North,360,2.0,8.0,55,0.00,,,0.00,Rainwise IP-100,2013-01-24 03:35:00,
2013-01-23 22:40:00,2.0,-6.0,30.24,WSW,247,0.0,3.0,55,0.00,,,0.00,Rainwise IP-100,2013-01-24 03:40:00,
2013-01-23 22:45:00,2.0,-6.0,30.24,NW,315,2.0,6.0,55,0.00,,,0.00,Rainwise IP-100,2013-01-24 03:45:00,
2013-01-23 22:51:00,2.0,-6.0,30.24,WNW,292,0.0,6.0,56,0.00,,,0.00,Rainwise IP-100,2013-01-24 03:51:00,
2013-01-23 22:56:00,2.0,-6.0,30.24,WNW,292,4.0,7.0,56,0.00,,,0.00,Rainwise IP-100,2013-01-24 03:56:00,
2013-01-23 23:01:00,2.0,-6.0,30.24,NNW,337,1.0,7.0,57,0.00,,,0.00,Rainwise IP-100,2013-01-24 04:01:00,
2013-01-23 23:06:00,2.0,-6.0,30.24,NNW,337,0.0,7.0,57,0.00,,,0.00,Rainwise IP-100,2013-01-24 04:06:00,
2013-01-23 23:11:00,2.0,-6.0,30.24,West,270,1.0,6.0,58,0.00,,,0.00,Rainwise IP-100,2013-01-24 04:11:00,
2013-01-23 23:16:00,2.0,-6.0,30.24,West,270,1.0,6.0,58,0.00,,,0.00,Rainwise IP-100,2013-01-24 04:16:00,
2013-01-23 23:24:00,2.0,-6.0,30.24,WSW,247,1.0,9.0,58,0.00,,,0.00,Rainwise IP-100,2013-01-24 04:24:00,
2013-01-23 23:29:00,2.0,-6.0,30.24,SW,225,2.0,5.0,59,0.00,,,0.00,Rainwise IP-100,2013-01-24 04:29:00,
2013-01-23 23:37:00,2.0,-6.0,30.24,NNW,337,4.0,7.0,57,0.00,,,0.00,Rainwise IP-100,2013-01-24 04:37:00,
2013-01-23 23:51:00,2.0,-6.0,30.24,WNW,292,5.0,6.0,58,0.00,,,0.00,Rainwise IP-100,2013-01-24 04:51:00,